createdAt,value
2022-10-11T00:01:00.080Z,79.27
2022-10-11T00:03:40.130Z,79.61
2022-10-11T00:06:19.105Z,81.67
2022-10-11T00:08:59.668Z,82.41
2022-10-11T00:11:40.511Z,81.10
2022-10-11T00:14:20.848Z,81.95
2022-10-11T00:16:56.646Z,82.27
2022-10-11T00:19:35.335Z,83.23
2022-10-11T00:22:13.478Z,84.10
2022-10-11T00:24:52.891Z,83.90
2022-10-11T00:27:31.501Z,83.45
2022-10-11T00:30:10.046Z,83.34
2022-10-11T00:32:47.821Z,83.04
2022-10-11T00:35:26.184Z,83.87
2022-10-11T00:38:04.244Z,83.96
2022-10-11T00:40:42.601Z,84.52
2022-10-11T00:43:22.432Z,84.86
2022-10-11T00:46:05.779Z,85.64
2022-10-11T00:48:47.261Z,85.71
2022-10-11T00:51:45.204Z,85.43
2022-10-11T00:54:27.330Z,85.76
2022-10-11T00:57:09.947Z,85.58
2022-10-11T00:59:49.454Z,86.18
2022-10-11T01:02:28.124Z,86.33
2022-10-11T01:05:27.995Z,86.25
2022-10-11T01:08:08.212Z,86.59
2022-10-11T01:10:46.867Z,86.77
2022-10-11T01:13:26.754Z,87.43
2022-10-11T01:16:19.347Z,87.41
2022-10-11T01:19:15.585Z,87.98
2022-10-11T01:22:08.366Z,88.21
2022-10-11T01:24:47.161Z,88.94
2022-10-11T01:27:53.907Z,88.53
2022-10-11T01:30:34.096Z,88.68
2022-10-11T01:33:12.156Z,87.94
2022-10-11T01:35:53.427Z,89.39
2022-10-11T01:38:39.196Z,89.67
2022-10-11T01:41:21.249Z,88.90
2022-10-11T01:43:59.378Z,89.04
2022-10-11T01:46:37.994Z,89.63
2022-10-11T01:49:13.882Z,89.92
2022-10-11T01:51:53.478Z,89.22
2022-10-11T01:55:08.021Z,89.41
2022-10-11T01:57:51.741Z,90.57
2022-10-11T02:00:53.207Z,89.91
2022-10-11T02:03:46.353Z,88.57
2022-10-11T02:07:00.590Z,89.26
2022-10-11T02:09:47.222Z,89.77
2022-10-11T02:12:32.093Z,89.65
2022-10-11T02:15:13.381Z,89.83
2022-10-11T02:17:53.962Z,89.50
2022-10-11T02:20:37.947Z,90.34
2022-10-11T02:23:19.909Z,90.49
2022-10-11T02:25:57.624Z,90.37
2022-10-11T02:28:38.098Z,90.57
2022-10-11T02:31:19.391Z,90.53
2022-10-11T02:34:14.291Z,90.78
2022-10-11T02:37:11.951Z,90.23
2022-10-11T02:40:01.247Z,90.43
2022-10-11T02:42:44.410Z,89.58
2022-10-11T02:45:24.684Z,89.85
2022-10-11T02:48:03.241Z,89.63
2022-10-11T02:50:42.330Z,90.43
2022-10-11T02:53:20.949Z,90.89
2022-10-11T02:55:59.065Z,90.75
2022-10-11T02:58:35.350Z,90.98
2022-10-11T03:01:13.850Z,90.95
2022-10-11T03:03:51.941Z,91.12
2022-10-11T03:06:28.163Z,91.30
2022-10-11T03:09:06.840Z,91.30
2022-10-11T03:11:47.040Z,91.31
2022-10-11T03:14:24.809Z,92.06
2022-10-11T03:17:23.731Z,91.75
2022-10-11T03:20:01.907Z,92.05
2022-10-11T03:22:40.336Z,92.09
2022-10-11T03:25:20.409Z,92.07
2022-10-11T03:27:58.273Z,92.46
2022-10-11T03:30:36.352Z,92.54
2022-10-11T03:33:14.472Z,92.96
2022-10-11T03:35:52.748Z,93.08
2022-10-11T03:38:30.939Z,92.62
2022-10-11T03:41:11.172Z,92.82
2022-10-11T03:43:48.929Z,93.50
2022-10-11T03:46:28.149Z,93.83
2022-10-11T03:49:06.946Z,93.53
2022-10-11T03:51:43.125Z,94.24
2022-10-11T03:54:21.770Z,93.74
2022-10-11T03:57:01.905Z,94.00
2022-10-11T03:59:39.694Z,94.43
2022-10-11T04:02:18.004Z,93.91
2022-10-11T04:04:56.120Z,94.91
2022-10-11T04:07:34.337Z,95.30
2022-10-11T04:10:14.510Z,95.45
2022-10-11T04:12:52.278Z,95.47
2022-10-11T04:15:30.487Z,95.16
2022-10-11T04:18:09.167Z,94.58
2022-10-11T04:20:46.859Z,95.54
2022-10-11T04:23:23.097Z,95.66
2022-10-11T04:26:05.019Z,95.91
2022-10-11T04:28:43.064Z,96.17
2022-10-11T04:31:22.533Z,95.99
2022-10-11T04:34:01.153Z,96.68
2022-10-11T04:36:39.368Z,96.29
2022-10-11T04:39:17.524Z,96.49
2022-10-11T04:41:53.714Z,97.21
2022-10-11T04:44:32.311Z,97.23
2022-10-11T04:47:10.604Z,95.07
2022-10-11T04:49:48.667Z,95.60
2022-10-11T04:52:26.880Z,96.33
2022-10-11T04:55:05.277Z,96.01
2022-10-11T04:57:43.328Z,96.13
2022-10-11T05:00:21.895Z,96.14
2022-10-11T05:03:01.768Z,96.42
2022-10-11T05:05:39.447Z,96.90
2022-10-11T05:08:15.828Z,96.98
2022-10-11T05:10:56.874Z,96.48
2022-10-11T05:13:35.707Z,96.32
2022-10-11T05:16:14.581Z,96.72
2022-10-11T05:18:56.750Z,96.63
2022-10-11T05:21:37.045Z,96.98
2022-10-11T05:24:16.965Z,96.96
2022-10-11T05:26:52.657Z,96.60
2022-10-11T05:29:33.236Z,96.88
2022-10-11T05:32:11.040Z,97.26
2022-10-11T05:34:49.294Z,97.08
2022-10-11T05:37:27.551Z,97.14
2022-10-11T05:40:07.987Z,96.80
2022-10-11T05:42:47.087Z,97.31
2022-10-11T05:45:32.189Z,97.24
2022-10-11T05:48:11.608Z,96.61
2022-10-11T05:50:50.310Z,96.88
2022-10-11T05:53:29.865Z,97.31
2022-10-11T05:56:21.366Z,96.84
2022-10-11T05:59:02.207Z,96.65
2022-10-11T06:01:43.869Z,96.71
2022-10-11T06:04:23.099Z,97.37
2022-10-11T06:06:59.231Z,96.97
2022-10-11T06:09:37.844Z,97.26
2022-10-11T06:12:17.250Z,97.03
2022-10-11T06:14:53.806Z,96.61
2022-10-11T06:17:44.518Z,96.21
2022-10-11T06:20:40.768Z,95.59
2022-10-11T06:23:39.185Z,95.74
2022-10-11T06:26:35.535Z,94.79
2022-10-11T06:29:30.796Z,92.16
2022-10-11T06:32:29.558Z,86.41
2022-10-11T06:35:22.588Z,84.30
2022-10-11T06:38:45.263Z,83.25
2022-10-11T06:41:41.823Z,82.79
2022-10-11T06:44:49.145Z,81.64
2022-10-11T06:47:41.034Z,80.58
2022-10-11T06:50:29.901Z,78.58
2022-10-11T06:53:37.951Z,77.26
2022-10-11T06:56:30.306Z,76.58
2022-10-11T06:59:09.047Z,75.31
2022-10-11T07:02:14.562Z,76.11
2022-10-11T07:05:07.085Z,76.28
2022-10-11T07:08:14.349Z,75.43
2022-10-11T07:11:07.634Z,74.56
2022-10-11T07:13:54.042Z,73.35
2022-10-11T07:17:05.001Z,73.42
2022-10-11T07:20:06.695Z,73.86
2022-10-11T07:22:59.299Z,72.36
2022-10-11T07:25:55.141Z,73.58
2022-10-11T07:28:47.681Z,74.90
2022-10-11T07:31:42.704Z,74.38
2022-10-11T07:34:34.457Z,74.84
2022-10-11T07:37:11.297Z,73.84
2022-10-11T07:40:03.814Z,75.03
2022-10-11T07:42:40.393Z,73.94
2022-10-11T07:45:40.333Z,73.70
2022-10-11T07:48:39.295Z,73.65
2022-10-11T07:51:30.797Z,74.90
2022-10-11T07:54:09.606Z,74.08
2022-10-11T07:57:03.581Z,73.62
2022-10-11T07:59:55.704Z,71.30
2022-10-11T08:02:57.244Z,69.70
2022-10-11T08:05:33.408Z,69.36
2022-10-11T08:08:31.249Z,70.64
2022-10-11T08:11:27.519Z,70.95
2022-10-11T08:14:21.380Z,70.51
2022-10-11T08:17:14.141Z,70.42
2022-10-11T08:20:10.947Z,69.51
2022-10-11T08:23:21.188Z,68.77
2022-10-11T08:26:14.063Z,69.44
2022-10-11T08:29:09.526Z,65.82
2022-10-11T08:32:05.365Z,64.93
2022-10-11T08:35:03.197Z,62.44
2022-10-11T08:37:39.141Z,60.74
2022-10-11T08:40:47.554Z,60.94
2022-10-11T08:43:51.562Z,60.70
2022-10-11T08:46:51.807Z,61.12
2022-10-11T08:49:51.421Z,58.27
2022-10-11T08:52:57.582Z,59.63
2022-10-11T08:55:49.164Z,58.55
2022-10-11T08:58:51.694Z,57.33
2022-10-11T09:02:15.233Z,58.05
2022-10-11T09:04:55.362Z,58.83
2022-10-11T09:08:00.786Z,57.49
2022-10-11T09:10:59.953Z,57.48
2022-10-11T09:13:51.841Z,58.06
2022-10-11T09:16:45.242Z,57.27
2022-10-11T09:19:45.116Z,58.88
2022-10-11T09:22:38.332Z,56.13
2022-10-11T09:25:38.143Z,54.60
2022-10-11T09:28:33.674Z,54.46
2022-10-11T09:31:11.749Z,54.28
2022-10-11T09:33:52.294Z,55.98
2022-10-11T09:36:47.112Z,54.96
2022-10-11T09:39:39.098Z,53.69
2022-10-11T09:42:17.281Z,53.49
2022-10-11T09:45:18.003Z,52.76
2022-10-11T09:47:45.577Z,53.46
2022-10-11T09:50:20.645Z,56.29
2022-10-11T09:52:52.952Z,56.73
2022-10-11T09:55:31.073Z,55.57
2022-10-11T09:57:58.694Z,54.88
2022-10-11T10:00:28.418Z,54.64
2022-10-11T10:02:58.401Z,54.93
2022-10-11T10:05:27.873Z,55.10
2022-10-11T10:08:10.601Z,56.11
2022-10-11T10:10:40.842Z,55.21
2022-10-11T10:13:23.320Z,55.51
2022-10-11T10:15:54.975Z,55.41
2022-10-11T10:18:29.703Z,56.99
2022-10-11T10:21:02.068Z,56.70
2022-10-11T10:23:34.960Z,55.58
2022-10-11T10:26:12.657Z,55.25
2022-10-11T10:29:05.308Z,56.09
2022-10-11T10:32:14.209Z,55.62
2022-10-11T10:35:21.980Z,54.32
2022-10-11T10:38:17.089Z,56.07
2022-10-11T10:40:50.872Z,56.26
2022-10-11T10:43:21.800Z,55.14
2022-10-11T10:46:08.358Z,54.64
2022-10-11T10:49:28.671Z,55.60
2022-10-11T10:52:10.661Z,55.85
2022-10-11T10:54:42.431Z,55.00
2022-10-11T10:57:49.346Z,55.31
2022-10-11T11:00:21.856Z,54.32
2022-10-11T11:03:19.505Z,54.13
2022-10-11T11:06:00.907Z,53.98
2022-10-11T11:08:52.643Z,52.89
2022-10-11T11:11:29.956Z,52.75
2022-10-11T11:14:41.335Z,52.52
2022-10-11T11:17:11.625Z,52.67
2022-10-11T11:19:51.428Z,52.94
2022-10-11T11:22:38.040Z,53.75
2022-10-11T11:25:05.176Z,52.76
2022-10-11T11:27:56.249Z,51.84
2022-10-11T11:30:29.428Z,52.05
2022-10-11T11:33:52.450Z,52.68
2022-10-11T11:36:27.673Z,52.70
2022-10-11T11:38:58.263Z,52.83
2022-10-11T11:41:30.707Z,53.51
2022-10-11T11:44:16.783Z,53.60
2022-10-11T11:46:56.901Z,52.59
2022-10-11T11:49:35.263Z,53.60
2022-10-11T11:52:05.737Z,53.43
2022-10-11T11:54:43.230Z,53.32
2022-10-11T11:57:31.206Z,53.65
2022-10-11T12:00:23.392Z,53.98
2022-10-11T12:02:57.929Z,53.74
2022-10-11T12:05:29.472Z,53.85
2022-10-11T12:08:03.999Z,54.15
2022-10-11T12:10:38.729Z,55.02
2022-10-11T12:13:16.581Z,53.99
2022-10-11T12:16:12.678Z,52.84
2022-10-11T12:18:49.026Z,53.02
2022-10-11T12:21:36.329Z,53.62
2022-10-11T12:24:23.248Z,54.31
2022-10-11T12:26:56.116Z,52.37
2022-10-11T12:29:28.684Z,51.87
2022-10-11T12:31:59.220Z,51.76
2022-10-11T12:34:36.088Z,51.44
2022-10-11T12:37:20.537Z,50.47
2022-10-11T12:40:00.884Z,50.96
2022-10-11T12:42:35.394Z,50.83
2022-10-11T12:45:13.126Z,50.91
2022-10-11T12:47:55.296Z,51.04
2022-10-11T12:50:44.235Z,50.90
2022-10-11T12:53:44.206Z,50.31
2022-10-11T12:56:26.424Z,51.05
2022-10-11T12:59:02.961Z,50.27
2022-10-11T13:01:48.308Z,50.14
2022-10-11T13:04:19.074Z,50.23
2022-10-11T13:06:49.858Z,49.56
2022-10-11T13:09:45.310Z,49.09
2022-10-11T13:12:21.467Z,48.97
2022-10-11T13:15:05.402Z,48.50
2022-10-11T13:17:39.025Z,48.31
2022-10-11T13:20:19.465Z,48.37
2022-10-11T13:22:50.834Z,47.98
2022-10-11T13:25:25.918Z,47.93
2022-10-11T13:27:56.510Z,47.78
2022-10-11T13:30:29.630Z,47.71
2022-10-11T13:32:58.718Z,47.78
2022-10-11T13:35:31.741Z,47.17
2022-10-11T13:37:59.586Z,47.67
2022-10-11T13:40:28.241Z,47.52
2022-10-11T13:42:56.638Z,47.29
2022-10-11T13:45:45.563Z,47.56
2022-10-11T13:48:15.045Z,47.76
2022-10-11T13:50:46.366Z,47.63
2022-10-11T13:53:13.597Z,48.75
2022-10-11T13:55:59.662Z,49.07
2022-10-11T13:58:32.213Z,49.26
2022-10-11T14:01:06.656Z,48.29
2022-10-11T14:03:43.164Z,48.47
2022-10-11T14:06:10.589Z,48.41
2022-10-11T14:08:39.947Z,48.70
2022-10-11T14:11:07.752Z,47.82
2022-10-11T14:13:34.745Z,48.42
2022-10-11T14:16:04.846Z,48.65
2022-10-11T14:18:38.187Z,48.55
2022-10-11T14:21:23.218Z,48.11
2022-10-11T14:23:51.409Z,48.65
2022-10-11T14:26:19.221Z,49.05
2022-10-11T14:28:48.880Z,47.97
2022-10-11T14:31:16.049Z,48.45
2022-10-11T14:33:43.170Z,47.95
2022-10-11T14:36:10.257Z,48.42
2022-10-11T14:38:37.337Z,48.71
2022-10-11T14:41:04.429Z,48.89
2022-10-11T14:43:31.498Z,49.33
2022-10-11T14:45:59.111Z,49.56
2022-10-11T14:48:50.294Z,49.85
2022-10-11T14:51:14.561Z,48.52
2022-10-11T14:53:46.194Z,49.42
2022-10-11T14:56:17.747Z,49.71
2022-10-11T14:58:47.960Z,50.06
2022-10-11T15:01:15.997Z,49.45
2022-10-11T15:03:43.232Z,49.25
2022-10-11T15:06:15.981Z,49.90
2022-10-11T15:08:43.090Z,50.23
2022-10-11T15:11:11.565Z,49.99
2022-10-11T15:13:38.802Z,49.63
2022-10-11T15:16:06.385Z,49.20
2022-10-11T15:18:33.966Z,50.28
2022-10-11T15:21:01.313Z,49.99
2022-10-11T15:23:28.795Z,50.56
2022-10-11T15:25:56.162Z,51.56
2022-10-11T15:28:27.195Z,52.64
2022-10-11T15:30:58.288Z,52.56
2022-10-11T15:33:26.965Z,50.83
2022-10-11T15:35:55.454Z,51.12
2022-10-11T15:38:25.134Z,50.89
2022-10-11T15:40:54.244Z,51.82
2022-10-11T15:43:24.700Z,51.25
2022-10-11T15:45:52.417Z,53.69
2022-10-11T15:48:22.828Z,54.71
2022-10-11T15:50:50.944Z,53.69
2022-10-11T15:53:25.793Z,55.21
2022-10-11T15:55:54.898Z,55.50
2022-10-11T15:58:31.320Z,53.07
2022-10-11T16:01:05.249Z,52.96
2022-10-11T16:03:35.161Z,55.82
2022-10-11T16:06:05.485Z,57.23
2022-10-11T16:08:34.145Z,56.15
2022-10-11T16:11:03.233Z,59.33
2022-10-11T16:13:32.085Z,59.59
2022-10-11T16:16:02.097Z,60.12
2022-10-11T16:18:34.281Z,60.89
2022-10-11T16:21:09.034Z,61.37
2022-10-11T16:23:37.740Z,60.04
2022-10-11T16:26:06.647Z,60.86
2022-10-11T16:28:34.376Z,58.63
2022-10-11T16:31:06.884Z,58.97
2022-10-11T16:33:34.085Z,59.88
2022-10-11T16:36:21.142Z,59.33
2022-10-11T16:38:48.255Z,58.80
2022-10-11T16:41:15.433Z,59.55
2022-10-11T16:43:42.542Z,59.86
2022-10-11T16:46:09.576Z,60.08
2022-10-11T16:48:36.894Z,58.71
2022-10-11T16:51:08.600Z,60.38
2022-10-11T16:53:36.274Z,59.77
2022-10-11T16:56:08.417Z,60.55
2022-10-11T16:58:36.377Z,60.52
2022-10-11T17:01:07.782Z,61.30
2022-10-11T17:03:35.174Z,61.85
2022-10-11T17:06:02.929Z,62.91
2022-10-11T17:08:30.233Z,62.92
2022-10-11T17:10:58.042Z,63.28
2022-10-11T17:13:25.122Z,64.26
2022-10-11T17:15:52.636Z,63.72
2022-10-11T17:18:19.718Z,65.11
2022-10-11T17:20:46.838Z,64.62
2022-10-11T17:23:14.065Z,65.21
2022-10-11T17:25:45.948Z,65.40
2022-10-11T17:28:14.323Z,65.58
2022-10-11T17:30:42.087Z,66.50
2022-10-11T17:33:09.207Z,64.83
2022-10-11T17:35:36.307Z,66.06
2022-10-11T17:38:06.317Z,66.23
2022-10-11T17:40:33.579Z,66.59
2022-10-11T17:43:00.551Z,66.44
2022-10-11T17:45:27.620Z,66.48
2022-10-11T17:47:54.602Z,66.41
2022-10-11T17:50:21.664Z,66.84
2022-10-11T17:52:49.197Z,67.37
2022-10-11T17:55:16.590Z,67.48
2022-10-11T17:57:43.648Z,67.65
2022-10-11T18:00:10.962Z,68.27
2022-10-11T18:02:40.130Z,67.96
2022-10-11T18:05:07.545Z,68.27
2022-10-11T18:07:34.749Z,68.36
2022-10-11T18:10:01.828Z,68.55
2022-10-11T18:12:30.024Z,68.07
2022-10-11T18:14:57.211Z,69.28
2022-10-11T18:17:24.267Z,67.25
2022-10-11T18:19:51.400Z,67.72
2022-10-11T18:22:18.659Z,68.18
2022-10-11T18:24:45.697Z,67.45
2022-10-11T18:27:12.699Z,67.19
2022-10-11T18:29:39.801Z,68.59
2022-10-11T18:32:06.919Z,69.55
2022-10-11T18:34:34.053Z,70.10
2022-10-11T18:37:01.105Z,71.14
2022-10-11T18:39:29.183Z,70.91
2022-10-11T18:41:56.201Z,70.52
2022-10-11T18:44:23.302Z,70.60
2022-10-11T18:46:51.030Z,70.27
2022-10-11T18:49:18.134Z,71.13
2022-10-11T18:51:45.459Z,71.33
2022-10-11T18:54:15.395Z,71.31
2022-10-11T18:56:45.549Z,72.11
2022-10-11T18:59:12.797Z,71.84
2022-10-11T19:01:41.771Z,72.09
2022-10-11T19:04:10.183Z,72.81
2022-10-11T19:06:38.803Z,72.33
2022-10-11T19:09:05.907Z,73.14
2022-10-11T19:11:33.437Z,73.23
2022-10-11T19:14:08.968Z,73.12
2022-10-11T19:16:40.346Z,72.91
2022-10-11T19:19:07.646Z,73.25
2022-10-11T19:21:34.933Z,74.26
2022-10-11T19:24:22.561Z,74.01
2022-10-11T19:26:50.160Z,73.61
2022-10-11T19:29:19.185Z,73.76
2022-10-11T19:31:47.958Z,74.16
2022-10-11T19:34:15.645Z,74.37
2022-10-11T19:36:43.198Z,74.54
2022-10-11T19:39:11.839Z,75.08
2022-10-11T19:41:38.900Z,74.37
2022-10-11T19:44:06.098Z,74.80
2022-10-11T19:49:25.801Z,75.40
2022-10-11T19:51:53.592Z,75.60
2022-10-11T19:54:20.850Z,75.90
2022-10-11T19:56:47.999Z,75.44
2022-10-11T19:59:15.025Z,74.50
2022-10-11T20:01:42.556Z,73.78
2022-10-11T20:04:27.437Z,73.41
2022-10-11T20:06:58.828Z,74.09
2022-10-11T20:09:30.611Z,74.87
2022-10-11T20:11:58.333Z,75.22
2022-10-11T20:14:25.539Z,73.87
2022-10-11T20:16:53.132Z,74.81
2022-10-11T20:19:23.857Z,75.37
2022-10-11T20:21:55.090Z,76.22
2022-10-11T20:24:22.317Z,76.03
2022-10-11T20:26:49.436Z,76.50
2022-10-11T20:29:16.822Z,77.70
2022-10-11T20:31:43.964Z,76.96
2022-10-11T20:34:11.293Z,76.96
2022-10-11T20:36:38.316Z,77.43
2022-10-11T20:39:06.289Z,76.13
2022-10-11T20:41:39.636Z,75.87
2022-10-11T20:44:07.559Z,75.41
2022-10-11T20:46:36.725Z,75.04
2022-10-11T20:49:05.748Z,74.95
2022-10-11T20:51:34.116Z,74.10
2022-10-11T20:54:02.172Z,74.39
2022-10-11T20:56:29.966Z,74.00
2022-10-11T20:58:57.852Z,74.49
2022-10-11T21:01:29.588Z,74.72
2022-10-11T21:03:57.718Z,74.47
2022-10-11T21:06:25.222Z,74.47
2022-10-11T21:08:53.839Z,75.18
2022-10-11T21:11:20.906Z,74.86
2022-10-11T21:13:47.892Z,74.74
2022-10-11T21:16:15.870Z,75.41
2022-10-11T21:18:43.005Z,74.52
2022-10-11T21:21:11.346Z,74.97
2022-10-11T21:23:38.598Z,74.77
2022-10-11T21:26:07.328Z,74.55
2022-10-11T21:28:34.846Z,74.59
2022-10-11T21:31:09.359Z,75.58
2022-10-11T21:33:36.598Z,75.55
2022-10-11T21:36:08.374Z,76.11
2022-10-11T21:38:36.115Z,76.16
2022-10-11T21:41:07.649Z,76.98
2022-10-11T21:43:35.740Z,78.06
2022-10-11T21:46:10.154Z,78.57
2022-10-11T21:48:37.408Z,79.15
2022-10-11T21:51:04.864Z,79.57
2022-10-11T21:53:32.069Z,79.64
2022-10-11T21:55:59.769Z,79.38
2022-10-11T21:58:27.474Z,79.53
2022-10-11T22:00:54.922Z,80.44
2022-10-11T22:03:21.999Z,80.14
2022-10-11T22:05:49.129Z,80.76
2022-10-11T22:08:16.177Z,79.93
2022-10-11T22:10:43.891Z,79.94
2022-10-11T22:13:10.980Z,80.26
2022-10-11T22:15:39.037Z,80.18
2022-10-11T22:18:06.096Z,80.53
2022-10-11T22:20:33.521Z,80.43
2022-10-11T22:23:00.524Z,81.00
2022-10-11T22:25:27.681Z,80.80
2022-10-11T22:27:55.248Z,81.29
2022-10-11T22:30:22.308Z,81.59
2022-10-11T22:32:50.807Z,81.10
2022-10-11T22:35:18.177Z,81.55
2022-10-11T22:37:45.592Z,81.72
2022-10-11T22:40:12.581Z,81.49
2022-10-11T22:42:39.881Z,81.76
2022-10-11T22:45:06.993Z,81.84
2022-10-11T22:47:34.399Z,82.44
2022-10-11T22:50:01.646Z,82.52
2022-10-11T22:52:28.752Z,83.06
2022-10-11T22:54:55.700Z,82.73
2022-10-11T22:57:22.836Z,82.95
2022-10-11T22:59:49.816Z,82.85
2022-10-11T23:02:16.890Z,83.06
2022-10-11T23:04:43.872Z,82.76
2022-10-11T23:07:10.860Z,82.72
2022-10-11T23:09:37.885Z,82.79
2022-10-11T23:12:05.021Z,82.92
2022-10-11T23:14:32.368Z,82.10
2022-10-11T23:16:59.555Z,83.05
2022-10-11T23:19:26.827Z,83.51
2022-10-11T23:21:54.054Z,83.48
2022-10-11T23:24:21.301Z,83.75
2022-10-11T23:26:48.710Z,83.51
2022-10-11T23:29:16.051Z,83.65
2022-10-11T23:31:43.342Z,83.36
2022-10-11T23:34:10.634Z,83.56
2022-10-11T23:36:37.842Z,83.30
2022-10-11T23:39:05.096Z,83.79
2022-10-11T23:41:32.419Z,84.29
2022-10-11T23:43:59.608Z,83.63
2022-10-11T23:46:26.807Z,83.03
2022-10-11T23:48:54.041Z,83.64
2022-10-11T23:51:21.283Z,83.69
2022-10-11T23:53:48.475Z,83.68
2022-10-11T23:56:15.778Z,83.44
2022-10-11T23:58:43.116Z,83.17
